London Mills, Illinois
Current Conditions -  °F | °C
As of 10:35 PM on Thursday 20 Nov 2014 (Local Time) from KGBG Reporting Station
Clear Clear  
Wind Chill: -11°   Ceiling: Unl
Heat Index: -11°   Visibility: 10mi
Dew Point: -13°   Wind: 3mph
Humidity: 80%   Direction: 300°WNW
Pressure: 30.32"   Gusts: NA
Location:  40.71°N, 90.27°W
Report Text: KGBG 210435Z AUTO 30003KT 10SM CLR M11/M13 A3032 RMK AO2 T11061134
Loading
Personal Weather Stations






























Interactive Weather Map New forecast layout! Learn more

10-Day Weather Forecast

Advertisements
Track Severe Weather on mobile